createdAt,value
2022-12-01T00:00:17.394Z,90.6
2022-12-01T00:01:16.922Z,90.5
2022-12-01T00:02:16.862Z,90.7
2022-12-01T00:03:17.722Z,90.4
2022-12-01T00:04:17.317Z,90.5
2022-12-01T00:05:16.776Z,90.8
2022-12-01T00:06:17.268Z,90.7
2022-12-01T00:07:16.737Z,90.9
2022-12-01T00:08:17.233Z,91.4
2022-12-01T00:09:20.330Z,91.0
2022-12-01T00:10:16.956Z,90.8
2022-12-01T00:11:17.443Z,90.5
2022-12-01T00:12:17.051Z,90.7
2022-12-01T00:13:16.553Z,90.7
2022-12-01T00:14:17.065Z,90.2
2022-12-01T00:15:16.554Z,90.3
2022-12-01T00:16:17.331Z,90.9
2022-12-01T00:17:16.884Z,90.9
2022-12-01T00:18:17.382Z,91.2
2022-12-01T00:19:16.857Z,90.8
2022-12-01T00:20:17.338Z,90.8
2022-12-01T00:21:16.798Z,90.7
2022-12-01T00:22:17.222Z,90.4
2022-12-01T00:23:16.744Z,90.4
2022-12-01T00:24:17.237Z,90.7
2022-12-01T00:25:16.702Z,90.5
2022-12-01T00:26:17.203Z,91.0
2022-12-01T00:27:16.710Z,90.4
2022-12-01T00:28:17.191Z,90.2
2022-12-01T00:29:16.708Z,90.2
2022-12-01T00:30:17.209Z,90.5
2022-12-01T00:31:16.841Z,90.5
2022-12-01T00:32:17.300Z,90.6
2022-12-01T00:33:16.820Z,90.2
2022-12-01T00:34:17.310Z,90.3
2022-12-01T00:35:16.768Z,90.5
2022-12-01T00:36:17.273Z,90.4
2022-12-01T00:37:16.807Z,90.7
2022-12-01T00:38:17.288Z,90.4
2022-12-01T00:39:16.772Z,90.2
2022-12-01T00:40:17.281Z,90.3
2022-12-01T00:41:16.753Z,90.3
2022-12-01T00:42:16.738Z,90.1
2022-12-01T00:43:17.208Z,90.4
2022-12-01T00:44:16.720Z,90.7
2022-12-01T00:45:17.215Z,90.7
2022-12-01T00:46:16.918Z,90.7
2022-12-01T00:47:17.758Z,91.0
2022-12-01T00:48:17.228Z,90.7
2022-12-01T00:49:16.737Z,90.4
2022-12-01T00:50:17.212Z,90.7
2022-12-01T00:51:16.687Z,90.9
2022-12-01T00:52:17.372Z,90.8
2022-12-01T00:53:16.849Z,90.5
2022-12-01T00:54:17.372Z,90.7
2022-12-01T00:55:16.840Z,90.6
2022-12-01T00:56:17.332Z,90.7
2022-12-01T00:57:16.816Z,91.1
2022-12-01T00:58:17.296Z,91.0
2022-12-01T00:59:16.769Z,90.9
2022-12-01T01:00:17.237Z,90.8
2022-12-01T01:01:16.881Z,90.7
2022-12-01T01:02:16.648Z,90.9
2022-12-01T01:03:17.174Z,90.7
2022-12-01T01:04:16.700Z,91.2
2022-12-01T01:05:17.193Z,90.7
2022-12-01T01:06:16.679Z,90.7
2022-12-01T01:07:17.171Z,91.5
2022-12-01T01:08:16.660Z,91.4
2022-12-01T01:09:17.149Z,90.8
2022-12-01T01:10:16.672Z,91.0
2022-12-01T01:11:17.187Z,91.0
2022-12-01T01:12:17.065Z,91.2
2022-12-01T01:13:16.552Z,91.2
2022-12-01T01:14:17.039Z,91.3
2022-12-01T01:15:16.514Z,91.8
2022-12-01T01:16:17.039Z,91.0
2022-12-01T01:17:16.532Z,91.8
2022-12-01T01:18:16.999Z,91.7
2022-12-01T01:19:16.666Z,91.4
2022-12-01T01:20:17.163Z,91.6
2022-12-01T01:21:16.649Z,91.5
2022-12-01T01:22:17.549Z,91.5
2022-12-01T01:23:17.066Z,91.8
2022-12-01T01:24:16.573Z,92.1
2022-12-01T01:25:17.087Z,92.2
2022-12-01T01:26:16.556Z,91.8
2022-12-01T01:27:17.048Z,91.5
2022-12-01T01:28:16.523Z,91.8
2022-12-01T01:29:17.013Z,91.8
2022-12-01T01:30:16.520Z,91.8
2022-12-01T01:31:17.202Z,92.3
2022-12-01T01:32:16.610Z,92.0
2022-12-01T01:33:17.088Z,91.7
2022-12-01T01:34:16.553Z,91.7
2022-12-01T01:35:17.031Z,91.9
2022-12-01T01:36:16.559Z,91.7
2022-12-01T01:37:17.046Z,92.0
2022-12-01T01:38:16.540Z,92.1
2022-12-01T01:39:17.020Z,91.7
2022-12-01T01:40:16.515Z,92.3
2022-12-01T01:41:17.029Z,92.2
2022-12-01T01:42:16.665Z,92.1
2022-12-01T01:43:17.121Z,92.4
2022-12-01T01:44:16.606Z,92.1
2022-12-01T01:45:17.061Z,92.2
2022-12-01T01:46:16.673Z,92.5
2022-12-01T01:47:17.277Z,92.0
2022-12-01T01:48:16.758Z,92.0
2022-12-01T01:49:17.245Z,91.9
2022-12-01T01:50:16.733Z,92.1
2022-12-01T01:51:17.195Z,92.0
2022-12-01T01:52:16.880Z,92.2
2022-12-01T01:53:17.357Z,92.0
2022-12-01T01:54:16.817Z,92.6
2022-12-01T01:55:17.286Z,92.1
2022-12-01T01:56:16.771Z,92.5
2022-12-01T01:57:17.246Z,92.4
2022-12-01T01:58:16.689Z,92.5
2022-12-01T01:59:17.157Z,92.2
2022-12-01T02:00:16.636Z,92.3
2022-12-01T02:01:17.407Z,92.3
2022-12-01T02:02:16.787Z,92.2
2022-12-01T02:03:17.289Z,92.6
2022-12-01T02:04:16.805Z,92.7
2022-12-01T02:05:17.325Z,92.3
2022-12-01T02:06:16.806Z,92.3
2022-12-01T02:07:17.351Z,92.6
2022-12-01T02:08:16.834Z,92.1
2022-12-01T02:09:17.298Z,92.2
2022-12-01T02:10:16.771Z,92.4
2022-12-01T02:11:17.238Z,92.0
2022-12-01T02:12:17.159Z,92.2
2022-12-01T02:13:16.625Z,92.3
2022-12-01T02:14:17.114Z,92.5
2022-12-01T02:15:16.615Z,92.2
2022-12-01T02:16:17.200Z,92.4
2022-12-01T02:17:16.781Z,92.5
2022-12-01T02:18:17.319Z,92.3
2022-12-01T02:19:16.814Z,92.4
2022-12-01T02:20:17.308Z,92.6
2022-12-01T02:21:16.804Z,92.6
2022-12-01T02:22:17.236Z,92.7
2022-12-01T02:23:16.717Z,92.5
2022-12-01T02:24:17.190Z,92.5
2022-12-01T02:25:16.664Z,93.0
2022-12-01T02:26:17.135Z,92.2
2022-12-01T02:27:16.622Z,92.2
2022-12-01T02:28:17.098Z,92.1
2022-12-01T02:29:16.560Z,92.5
2022-12-01T02:30:17.048Z,92.7
2022-12-01T02:31:16.665Z,92.3
2022-12-01T02:32:17.147Z,92.1
2022-12-01T02:33:16.667Z,92.5
2022-12-01T02:34:17.145Z,92.4
2022-12-01T02:35:16.639Z,92.7
2022-12-01T02:36:17.121Z,92.6
2022-12-01T02:37:16.602Z,92.5
2022-12-01T02:38:17.077Z,92.8
2022-12-01T02:39:16.559Z,92.8
2022-12-01T02:40:17.062Z,92.6
2022-12-01T02:41:16.532Z,92.5
2022-12-01T02:42:17.410Z,92.7
2022-12-01T02:43:16.902Z,92.7
2022-12-01T02:44:17.391Z,93.2
2022-12-01T02:45:16.893Z,92.8
2022-12-01T02:46:17.515Z,93.0
2022-12-01T02:47:17.043Z,93.0
2022-12-01T02:48:16.512Z,93.5
2022-12-01T02:49:16.994Z,92.8
2022-12-01T02:50:16.478Z,92.9
2022-12-01T02:51:16.986Z,92.8
2022-12-01T02:52:16.969Z,93.2
2022-12-01T02:53:17.460Z,93.2
2022-12-01T02:54:16.931Z,93.0
2022-12-01T02:55:17.393Z,92.8
2022-12-01T02:56:16.863Z,93.0
2022-12-01T02:57:17.371Z,93.6
2022-12-01T02:58:16.859Z,93.5
2022-12-01T02:59:17.388Z,93.3
2022-12-01T03:00:16.857Z,93.2
2022-12-01T03:01:17.480Z,93.2
2022-12-01T03:02:17.371Z,93.2
2022-12-01T03:03:16.924Z,93.2
2022-12-01T03:04:17.443Z,93.5
2022-12-01T03:05:16.936Z,93.4
2022-12-01T03:06:17.392Z,93.2
2022-12-01T03:07:16.854Z,93.6
2022-12-01T03:08:17.322Z,93.2
2022-12-01T03:09:16.782Z,93.5
2022-12-01T03:10:17.238Z,93.5
2022-12-01T03:11:16.730Z,93.5
2022-12-01T03:12:17.072Z,93.2
2022-12-01T03:13:16.547Z,93.3
2022-12-01T03:14:17.040Z,93.3
2022-12-01T03:15:16.546Z,93.5
2022-12-01T03:16:17.189Z,93.4
2022-12-01T03:17:16.692Z,93.3
2022-12-01T03:18:17.209Z,93.7
2022-12-01T03:19:16.695Z,93.6
2022-12-01T03:20:17.185Z,93.9
2022-12-01T03:21:16.658Z,93.8
2022-12-01T03:22:17.466Z,93.7
2022-12-01T03:23:16.917Z,93.6
2022-12-01T03:24:17.363Z,93.4
2022-12-01T03:25:16.818Z,93.8
2022-12-01T03:26:17.322Z,93.8
2022-12-01T03:27:16.815Z,93.9
2022-12-01T03:28:22.735Z,93.8
2022-12-01T03:29:17.393Z,93.5
2022-12-01T03:30:16.916Z,93.7
2022-12-01T03:31:17.612Z,93.8
2022-12-01T03:32:17.270Z,93.7
2022-12-01T03:33:16.768Z,93.8
2022-12-01T03:34:17.249Z,93.8
2022-12-01T03:35:16.736Z,94.0
2022-12-01T03:36:17.200Z,94.1
2022-12-01T03:37:16.696Z,94.1
2022-12-01T03:38:17.186Z,94.3
2022-12-01T03:39:16.653Z,93.9
2022-12-01T03:40:17.162Z,93.7
2022-12-01T03:41:16.710Z,93.4
2022-12-01T03:42:17.399Z,93.5
2022-12-01T03:43:16.916Z,93.5
2022-12-01T03:44:17.449Z,93.8
2022-12-01T03:45:16.934Z,93.8
2022-12-01T03:46:17.495Z,94.0
2022-12-01T03:47:17.035Z,93.8
2022-12-01T03:48:16.514Z,93.8
2022-12-01T03:49:16.980Z,94.0
2022-12-01T03:50:16.461Z,93.7
2022-12-01T03:51:16.979Z,93.9
2022-12-01T03:52:17.228Z,93.7
2022-12-01T03:53:16.737Z,94.0
2022-12-01T03:54:17.208Z,93.8
2022-12-01T03:55:16.688Z,94.0
2022-12-01T03:56:17.147Z,94.2
2022-12-01T03:57:16.612Z,93.8
2022-12-01T03:58:17.113Z,93.9
2022-12-01T03:59:16.589Z,93.9
2022-12-01T04:00:17.085Z,94.0
2022-12-01T04:01:16.726Z,93.9
2022-12-01T04:02:17.494Z,94.0
2022-12-01T04:03:17.144Z,94.1
2022-12-01T04:04:16.640Z,93.9
2022-12-01T04:05:25.389Z,94.0
2022-12-01T04:06:17.071Z,93.8
2022-12-01T04:07:16.555Z,93.8
2022-12-01T04:08:17.050Z,94.0
2022-12-01T04:09:16.542Z,94.0
2022-12-01T04:10:17.012Z,94.0
2022-12-01T04:11:16.481Z,94.0
2022-12-01T04:12:16.666Z,94.0
2022-12-01T04:13:17.168Z,94.0
2022-12-01T04:14:16.662Z,94.2
2022-12-01T04:15:17.158Z,94.2
2022-12-01T04:16:16.737Z,94.2
2022-12-01T04:17:17.257Z,94.3
2022-12-01T04:18:16.772Z,93.9
2022-12-01T04:19:17.256Z,94.5
2022-12-01T04:20:16.813Z,93.8
2022-12-01T04:21:17.284Z,93.8
2022-12-01T04:22:17.460Z,93.8
2022-12-01T04:23:16.932Z,93.9
2022-12-01T04:24:17.397Z,94.0
2022-12-01T04:25:16.887Z,94.3
2022-12-01T04:26:17.370Z,94.5
2022-12-01T04:27:16.833Z,94.2
2022-12-01T04:28:17.340Z,94.6
2022-12-01T04:29:16.831Z,94.8
2022-12-01T04:30:17.331Z,94.2
2022-12-01T04:31:16.865Z,94.4
2022-12-01T04:32:16.470Z,94.2
2022-12-01T04:33:16.953Z,94.2
2022-12-01T04:34:17.448Z,94.4
2022-12-01T04:35:16.945Z,94.7
2022-12-01T04:36:17.423Z,94.7
2022-12-01T04:37:16.915Z,94.5
2022-12-01T04:38:17.376Z,94.3
2022-12-01T04:39:16.841Z,94.3
2022-12-01T04:40:17.357Z,94.5
2022-12-01T04:41:16.836Z,94.2
2022-12-01T04:42:16.457Z,94.5
2022-12-01T04:43:16.951Z,94.6
2022-12-01T04:44:17.432Z,94.8
2022-12-01T04:45:16.916Z,94.8
2022-12-01T04:46:17.556Z,94.6
2022-12-01T04:47:17.056Z,94.5
2022-12-01T04:48:16.538Z,94.5
2022-12-01T04:49:17.034Z,94.7
2022-12-01T04:50:16.516Z,94.6
2022-12-01T04:51:16.981Z,94.6
2022-12-01T04:52:16.517Z,95.0
2022-12-01T04:53:16.980Z,94.7
2022-12-01T04:54:16.474Z,94.7
2022-12-01T04:55:16.962Z,94.4
2022-12-01T04:56:17.477Z,94.4
2022-12-01T04:57:17.212Z,94.6
2022-12-01T04:58:16.708Z,94.4
2022-12-01T04:59:17.200Z,94.4
2022-12-01T05:00:16.688Z,94.8
2022-12-01T05:01:17.387Z,94.5
2022-12-01T05:02:16.890Z,94.5
2022-12-01T05:03:17.414Z,94.8
2022-12-01T05:04:16.886Z,94.7
2022-12-01T05:05:17.382Z,94.5
2022-12-01T05:06:16.852Z,94.6
2022-12-01T05:07:17.346Z,94.5
2022-12-01T05:08:16.812Z,94.6
2022-12-01T05:09:18.150Z,94.3
2022-12-01T05:10:16.653Z,94.5
2022-12-01T05:11:17.132Z,94.7
2022-12-01T05:12:16.785Z,94.5
2022-12-01T05:13:17.272Z,94.6
2022-12-01T05:14:16.737Z,94.6
2022-12-01T05:15:17.229Z,94.8
2022-12-01T05:16:16.798Z,94.5
2022-12-01T05:17:17.339Z,94.7
2022-12-01T05:18:16.904Z,94.7
2022-12-01T05:19:17.452Z,94.3
2022-12-01T05:20:16.953Z,94.3
2022-12-01T05:21:17.432Z,94.5
2022-12-01T05:22:36.641Z,94.4
2022-12-01T05:23:17.525Z,94.2
2022-12-01T05:24:17.015Z,94.3
2022-12-01T05:25:16.550Z,94.7
2022-12-01T05:26:17.016Z,94.8
2022-12-01T05:27:16.514Z,94.6
2022-12-01T05:28:17.001Z,94.5
2022-12-01T05:29:16.510Z,94.5
2022-12-01T05:30:17.000Z,94.2
2022-12-01T05:31:16.605Z,94.0
2022-12-01T05:32:17.097Z,94.2
2022-12-01T05:33:16.560Z,94.1
2022-12-01T05:34:17.027Z,94.0
2022-12-01T05:35:16.529Z,93.7
2022-12-01T05:36:17.015Z,93.8
2022-12-01T05:37:16.524Z,94.0
2022-12-01T05:38:17.023Z,93.8
2022-12-01T05:39:16.510Z,93.9
2022-12-01T05:40:17.000Z,93.8
2022-12-01T05:41:16.489Z,93.8
2022-12-01T05:42:16.536Z,94.2
2022-12-01T05:43:17.054Z,94.1
2022-12-01T05:44:16.527Z,93.7
2022-12-01T05:45:16.999Z,94.0
2022-12-01T05:46:16.707Z,93.4
2022-12-01T05:47:17.221Z,93.6
2022-12-01T05:48:16.692Z,93.6
2022-12-01T05:49:17.153Z,93.7
2022-12-01T05:50:16.622Z,93.5
2022-12-01T05:51:17.089Z,93.1
2022-12-01T05:52:16.766Z,93.2
2022-12-01T05:53:17.238Z,93.7
2022-12-01T05:54:16.770Z,93.8
2022-12-01T05:55:17.240Z,93.8
2022-12-01T05:56:16.735Z,93.8
2022-12-01T05:57:17.217Z,93.3
2022-12-01T05:58:16.689Z,93.7
2022-12-01T05:59:17.187Z,93.5
2022-12-01T06:00:16.694Z,93.5
2022-12-01T06:01:17.177Z,93.3
2022-12-01T06:02:16.635Z,93.4
2022-12-01T06:03:17.116Z,93.3
2022-12-01T06:04:16.720Z,93.2
2022-12-01T06:05:17.254Z,93.3
2022-12-01T06:06:16.767Z,93.4
2022-12-01T06:07:17.258Z,93.2
2022-12-01T06:08:16.747Z,93.4
2022-12-01T06:09:17.269Z,93.2
2022-12-01T06:10:16.756Z,93.2
2022-12-01T06:11:17.220Z,93.6
2022-12-01T06:12:16.878Z,93.5
2022-12-01T06:13:17.357Z,93.8
2022-12-01T06:14:16.825Z,93.7
2022-12-01T06:15:17.331Z,93.5
2022-12-01T06:16:16.892Z,93.5
2022-12-01T06:17:17.390Z,93.6
2022-12-01T06:18:16.881Z,93.8
2022-12-01T06:19:17.375Z,93.6
2022-12-01T06:20:16.868Z,93.8
2022-12-01T06:21:17.344Z,93.8
2022-12-01T06:22:17.310Z,93.7
2022-12-01T06:23:16.778Z,93.5
2022-12-01T06:24:17.284Z,94.0
2022-12-01T06:25:16.756Z,94.3
2022-12-01T06:26:17.210Z,94.3
2022-12-01T06:27:16.686Z,94.3
2022-12-01T06:28:17.152Z,94.3
2022-12-01T06:29:16.647Z,94.3
2022-12-01T06:30:17.135Z,94.1
2022-12-01T06:31:16.844Z,93.8
2022-12-01T06:32:16.648Z,93.6
2022-12-01T06:33:17.151Z,93.8
2022-12-01T06:34:16.648Z,93.8
2022-12-01T06:35:17.153Z,93.8
2022-12-01T06:36:16.654Z,93.8
2022-12-01T06:37:17.161Z,93.8
2022-12-01T06:38:16.669Z,93.8
2022-12-01T06:39:17.131Z,93.9
2022-12-01T06:40:16.605Z,93.8
2022-12-01T06:41:17.130Z,94.0
2022-12-01T06:42:16.723Z,93.8
2022-12-01T06:43:17.215Z,93.8
2022-12-01T06:44:16.708Z,93.7
2022-12-01T06:45:17.242Z,93.6
2022-12-01T06:46:16.937Z,93.5
2022-12-01T06:47:17.481Z,93.3
2022-12-01T06:48:16.994Z,93.5
2022-12-01T06:49:16.491Z,93.5
2022-12-01T06:50:16.970Z,93.3
2022-12-01T06:51:16.465Z,93.2
2022-12-01T06:52:16.453Z,93.4
2022-12-01T06:53:16.943Z,93.3
2022-12-01T06:54:17.411Z,93.2
2022-12-01T06:55:16.899Z,93.3
2022-12-01T06:56:17.537Z,93.2
2022-12-01T06:57:17.572Z,93.2
2022-12-01T06:58:17.330Z,93.3
2022-12-01T06:59:17.412Z,93.6
2022-12-01T07:00:17.512Z,93.8
2022-12-01T07:01:17.377Z,93.5
2022-12-01T07:02:17.304Z,93.4
2022-12-01T07:03:16.770Z,93.3
2022-12-01T07:04:17.232Z,93.8
2022-12-01T07:05:16.703Z,93.3
2022-12-01T07:06:17.148Z,93.3
2022-12-01T07:07:16.613Z,93.3
2022-12-01T07:08:17.189Z,93.2
2022-12-01T07:09:16.702Z,93.2
2022-12-01T07:10:17.197Z,93.1
2022-12-01T07:11:16.698Z,93.6
2022-12-01T07:12:17.358Z,93.2
2022-12-01T07:13:16.829Z,93.5
2022-12-01T07:14:17.330Z,93.5
2022-12-01T07:15:16.831Z,93.3
2022-12-01T07:16:17.414Z,93.7
2022-12-01T07:17:16.919Z,93.7
2022-12-01T07:18:17.406Z,93.3
2022-12-01T07:19:16.911Z,93.3
2022-12-01T07:20:17.377Z,93.5
2022-12-01T07:21:16.863Z,93.7
2022-12-01T07:22:16.489Z,93.7
2022-12-01T07:23:16.991Z,93.6
2022-12-01T07:24:16.490Z,93.5
2022-12-01T07:25:16.976Z,93.4
2022-12-01T07:26:16.473Z,93.5
2022-12-01T07:27:16.945Z,93.5
2022-12-01T07:28:17.427Z,93.8
2022-12-01T07:29:16.910Z,93.7
2022-12-01T07:30:17.382Z,93.5
2022-12-01T07:31:17.085Z,93.8
2022-12-01T07:32:16.613Z,93.3
2022-12-01T07:33:17.062Z,93.2
2022-12-01T07:34:16.537Z,93.4
2022-12-01T07:35:17.035Z,93.5
2022-12-01T07:36:16.529Z,93.4
2022-12-01T07:37:17.048Z,93.5
2022-12-01T07:38:22.465Z,93.7
2022-12-01T07:39:17.003Z,93.3
2022-12-01T07:40:16.483Z,93.3
2022-12-01T07:41:16.989Z,93.4
2022-12-01T07:42:16.735Z,93.4
2022-12-01T07:43:17.242Z,93.3
2022-12-01T07:44:16.716Z,93.4
2022-12-01T07:45:17.191Z,93.5
2022-12-01T07:46:23.904Z,93.5
2022-12-01T07:47:16.663Z,93.0
2022-12-01T07:48:17.156Z,92.8
2022-12-01T07:49:16.634Z,93.3
2022-12-01T07:50:17.100Z,93.3
2022-12-01T07:51:16.583Z,92.6
2022-12-01T07:52:16.652Z,92.8
2022-12-01T07:53:17.142Z,92.9
2022-12-01T07:54:16.619Z,93.5
2022-12-01T07:55:17.129Z,93.1
2022-12-01T07:56:16.599Z,93.2
2022-12-01T07:57:17.098Z,93.2
2022-12-01T07:58:16.561Z,93.2
2022-12-01T07:59:17.054Z,93.2
2022-12-01T08:00:16.549Z,93.1
2022-12-01T08:01:17.155Z,93.1
2022-12-01T08:02:18.051Z,93.2
2022-12-01T08:03:16.713Z,93.3
2022-12-01T08:04:17.226Z,92.8
2022-12-01T08:05:16.729Z,92.8
2022-12-01T08:06:17.234Z,93.1
2022-12-01T08:07:16.738Z,93.0
2022-12-01T08:08:17.377Z,92.8
2022-12-01T08:09:16.873Z,92.7
2022-12-01T08:10:17.368Z,93.2
2022-12-01T08:11:16.850Z,93.2
2022-12-01T08:12:16.567Z,93.3
2022-12-01T08:13:17.802Z,93.2
2022-12-01T08:14:17.263Z,93.5
2022-12-01T08:15:16.832Z,92.8
2022-12-01T08:16:17.448Z,93.3
2022-12-01T08:17:16.944Z,92.8
2022-12-01T08:18:17.464Z,92.9
2022-12-01T08:19:16.936Z,92.7
2022-12-01T08:20:24.130Z,92.7
2022-12-01T08:21:16.950Z,92.8
2022-12-01T08:22:17.150Z,92.7
2022-12-01T08:23:16.663Z,92.7
2022-12-01T08:24:17.150Z,92.5
2022-12-01T08:25:16.654Z,92.5
2022-12-01T08:26:17.160Z,92.5
2022-12-01T08:27:16.626Z,92.5
2022-12-01T08:28:17.085Z,92.3
2022-12-01T08:29:20.663Z,92.2
2022-12-01T08:30:17.203Z,92.2
2022-12-01T08:31:16.889Z,92.2
2022-12-01T08:32:17.365Z,92.3
2022-12-01T08:33:16.831Z,92.3
2022-12-01T08:34:17.330Z,92.8
2022-12-01T08:35:16.854Z,92.3
2022-12-01T08:36:17.326Z,91.8
2022-12-01T08:37:16.807Z,91.9
2022-12-01T08:38:17.259Z,91.8
2022-12-01T08:39:16.727Z,91.9
2022-12-01T08:40:17.247Z,91.9
2022-12-01T08:41:16.715Z,91.6
2022-12-01T08:42:17.721Z,91.9
2022-12-01T08:43:49.916Z,91.8
2022-12-01T08:44:16.840Z,91.3
2022-12-01T08:45:17.451Z,91.4
2022-12-01T08:46:17.043Z,91.5
2022-12-01T08:47:19.257Z,91.5
2022-12-01T08:48:16.759Z,91.5
2022-12-01T08:49:17.225Z,91.2
2022-12-01T08:50:16.729Z,91.7
2022-12-01T08:51:17.220Z,92.0
2022-12-01T08:52:16.591Z,92.0
2022-12-01T08:53:17.062Z,92.2
2022-12-01T08:54:16.531Z,91.7
2022-12-01T08:55:17.005Z,91.8
2022-12-01T08:56:16.468Z,91.7
2022-12-01T08:57:16.952Z,91.6
2022-12-01T08:58:17.408Z,91.7
2022-12-01T08:59:16.893Z,91.4
2022-12-01T09:00:17.389Z,91.6
2022-12-01T09:01:17.053Z,91.5
2022-12-01T09:02:17.261Z,91.2
2022-12-01T09:03:16.850Z,91.4
2022-12-01T09:04:17.416Z,91.6
2022-12-01T09:05:16.887Z,91.4
2022-12-01T09:06:17.411Z,91.2
2022-12-01T09:07:24.556Z,91.7
2022-12-01T09:08:16.681Z,92.2
2022-12-01T09:09:17.212Z,91.7
2022-12-01T09:10:16.712Z,91.2
2022-12-01T09:11:17.194Z,91.5
2022-12-01T09:12:17.180Z,91.4
2022-12-01T09:13:16.659Z,91.6
2022-12-01T09:14:17.135Z,91.2
2022-12-01T09:15:16.649Z,91.6
2022-12-01T09:16:17.283Z,91.4
2022-12-01T09:17:16.789Z,91.2
2022-12-01T09:18:17.248Z,90.8
2022-12-01T09:19:24.831Z,91.3
2022-12-01T09:20:16.644Z,91.2
2022-12-01T09:21:17.152Z,90.7
2022-12-01T09:22:17.474Z,90.5
2022-12-01T09:23:16.953Z,90.5
2022-12-01T09:24:17.443Z,90.6
2022-12-01T09:25:16.927Z,90.5
2022-12-01T09:26:17.408Z,90.4
2022-12-01T09:27:16.932Z,90.2
2022-12-01T09:28:17.407Z,90.2
2022-12-01T09:29:16.951Z,89.8
2022-12-01T09:30:17.456Z,89.5
2022-12-01T09:31:17.075Z,89.4
2022-12-01T09:32:17.146Z,89.8
2022-12-01T09:33:16.615Z,90.0
2022-12-01T09:34:17.093Z,89.9
2022-12-01T09:35:23.508Z,89.8
2022-12-01T09:36:17.162Z,90.0
2022-12-01T09:37:16.662Z,90.0
2022-12-01T09:38:17.149Z,89.8
2022-12-01T09:39:16.624Z,89.0
2022-12-01T09:40:17.118Z,89.1
2022-12-01T09:41:16.584Z,89.2
2022-12-01T09:42:16.946Z,89.2
2022-12-01T09:43:17.407Z,89.1
2022-12-01T09:44:16.890Z,89.1
2022-12-01T09:45:17.374Z,88.5
2022-12-01T09:46:16.935Z,88.2
2022-12-01T09:47:16.470Z,88.5
2022-12-01T09:48:16.969Z,88.2
2022-12-01T09:49:16.468Z,87.9
2022-12-01T09:50:16.968Z,87.5
2022-12-01T09:51:17.438Z,87.7
2022-12-01T09:52:17.089Z,87.8
2022-12-01T09:53:16.567Z,87.8
2022-12-01T09:54:17.073Z,88.0
2022-12-01T09:55:16.556Z,87.8
2022-12-01T09:56:17.051Z,87.7
2022-12-01T09:57:16.546Z,87.4
2022-12-01T09:58:17.034Z,87.1
2022-12-01T09:59:16.500Z,87.3
2022-12-01T10:00:17.003Z,87.1
2022-12-01T10:01:16.593Z,86.9
2022-12-01T10:02:16.950Z,86.8
2022-12-01T10:03:16.456Z,87.4
2022-12-01T10:04:16.925Z,87.2
2022-12-01T10:05:17.542Z,87.2
2022-12-01T10:06:29.323Z,86.7
2022-12-01T10:07:16.924Z,86.6
2022-12-01T10:08:26.768Z,86.4
2022-12-01T10:09:17.478Z,86.7
2022-12-01T10:10:16.959Z,86.3
2022-12-01T10:11:17.452Z,87.1
2022-12-01T10:12:17.366Z,87.0
2022-12-01T10:13:16.823Z,86.5
2022-12-01T10:14:20.929Z,86.2
2022-12-01T10:15:17.430Z,85.9
2022-12-01T10:16:16.996Z,86.5
2022-12-01T10:17:16.483Z,86.7
2022-12-01T10:18:16.947Z,86.5
2022-12-01T10:19:17.429Z,86.6
2022-12-01T10:20:16.909Z,86.7
2022-12-01T10:21:17.389Z,87.2
2022-12-01T10:22:16.705Z,86.8
2022-12-01T10:23:17.207Z,86.3
2022-12-01T10:24:16.725Z,86.3
2022-12-01T10:25:17.207Z,86.5
2022-12-01T10:26:16.685Z,86.4
2022-12-01T10:27:17.164Z,86.0
2022-12-01T10:28:16.636Z,85.2
2022-12-01T10:29:17.132Z,86.2
2022-12-01T10:30:16.634Z,85.8
2022-12-01T10:31:17.250Z,86.0
2022-12-01T10:32:17.132Z,85.9
2022-12-01T10:33:16.607Z,84.7
2022-12-01T10:34:17.154Z,84.8
2022-12-01T10:35:16.675Z,85.0
2022-12-01T10:36:17.135Z,85.2
2022-12-01T10:37:16.722Z,85.1
2022-12-01T10:38:17.205Z,85.3
2022-12-01T10:39:16.669Z,84.9
2022-12-01T10:40:17.167Z,84.6
2022-12-01T10:41:16.665Z,84.5
2022-12-01T10:42:17.222Z,85.1
2022-12-01T10:43:16.723Z,85.3
2022-12-01T10:44:17.219Z,84.8
2022-12-01T10:45:16.708Z,84.6
2022-12-01T10:46:17.296Z,84.7
2022-12-01T10:47:16.828Z,84.8
2022-12-01T10:48:17.335Z,84.6
2022-12-01T10:49:16.820Z,84.0
2022-12-01T10:50:17.470Z,83.8
2022-12-01T10:51:17.028Z,84.5
2022-12-01T10:52:17.512Z,85.2
2022-12-01T10:53:17.003Z,84.5
2022-12-01T10:54:16.503Z,84.5
2022-12-01T10:55:17.010Z,84.5
2022-12-01T10:56:16.538Z,84.2
2022-12-01T10:57:17.065Z,85.0
2022-12-01T10:58:16.599Z,85.0
2022-12-01T10:59:17.097Z,84.3
2022-12-01T11:00:57.837Z,84.4
2022-12-01T11:01:17.351Z,84.5
2022-12-01T11:02:17.486Z,85.3
2022-12-01T11:03:22.263Z,84.5
2022-12-01T11:04:16.911Z,84.5
2022-12-01T11:05:17.377Z,84.4
2022-12-01T11:06:16.852Z,84.8
2022-12-01T11:07:17.328Z,84.7
2022-12-01T11:08:16.797Z,84.7
2022-12-01T11:09:25.891Z,84.3
2022-12-01T11:10:16.893Z,84.3
2022-12-01T11:11:17.433Z,84.6
2022-12-01T11:12:16.793Z,84.3
2022-12-01T11:13:17.279Z,84.3
2022-12-01T11:14:16.803Z,84.8
2022-12-01T11:15:17.293Z,84.9
2022-12-01T11:16:16.950Z,84.9
2022-12-01T11:17:16.493Z,84.5
2022-12-01T11:18:17.020Z,85.2
2022-12-01T11:19:25.279Z,84.5
2022-12-01T11:20:17.500Z,84.4
2022-12-01T11:21:17.007Z,84.2
2022-12-01T11:22:16.516Z,84.2
2022-12-01T11:23:17.004Z,84.4
2022-12-01T11:24:16.551Z,84.4
2022-12-01T11:25:17.173Z,85.1
2022-12-01T11:26:16.664Z,84.7
2022-12-01T11:27:17.210Z,84.5
2022-12-01T11:28:16.727Z,85.0
2022-12-01T11:29:17.205Z,85.2
2022-12-01T11:30:16.711Z,85.0
2022-12-01T11:31:17.378Z,85.1
2022-12-01T11:32:16.879Z,85.2
2022-12-01T11:33:17.441Z,85.2
2022-12-01T11:34:16.890Z,84.8
2022-12-01T11:35:17.345Z,84.6
2022-12-01T11:36:16.822Z,84.8
2022-12-01T11:37:17.334Z,84.9
2022-12-01T11:38:30.029Z,84.8
2022-12-01T11:39:16.762Z,84.8
2022-12-01T11:40:17.240Z,84.5
2022-12-01T11:41:16.753Z,84.4
2022-12-01T11:42:17.301Z,84.1
2022-12-01T11:43:16.850Z,84.1
2022-12-01T11:44:50.117Z,84.1
2022-12-01T11:45:16.868Z,83.5
2022-12-01T11:46:17.478Z,83.5
2022-12-01T11:47:24.528Z,84.4
2022-12-01T11:48:17.257Z,84.2
2022-12-01T11:49:16.724Z,83.8
2022-12-01T11:50:17.227Z,84.0
2022-12-01T11:51:16.731Z,83.7
2022-12-01T11:52:17.478Z,84.0
2022-12-01T11:53:16.983Z,84.3
2022-12-01T11:54:16.471Z,83.5
2022-12-01T11:55:16.961Z,83.7
2022-12-01T11:56:16.441Z,84.0
2022-12-01T11:57:34.011Z,84.6
2022-12-01T11:58:17.075Z,83.4
2022-12-01T11:59:16.576Z,83.1
2022-12-01T12:00:17.040Z,83.6
2022-12-01T12:01:22.340Z,84.1
2022-12-01T12:02:17.546Z,83.7
2022-12-01T12:03:17.160Z,83.4
2022-12-01T12:04:16.693Z,82.9
2022-12-01T12:05:17.146Z,82.5
2022-12-01T12:06:40.434Z,82.8
2022-12-01T12:07:17.106Z,81.8
2022-12-01T12:08:16.590Z,81.9
2022-12-01T12:09:17.068Z,81.8
2022-12-01T12:10:16.580Z,82.1
2022-12-01T12:11:17.081Z,82.4
2022-12-01T12:12:17.361Z,83.0
2022-12-01T12:13:16.892Z,82.2
2022-12-01T12:14:17.444Z,82.7
2022-12-01T12:15:17.079Z,82.8
2022-12-01T12:16:16.569Z,83.0
2022-12-01T12:17:17.247Z,83.2
2022-12-01T12:18:16.801Z,82.6
2022-12-01T12:19:17.312Z,83.2
2022-12-01T12:20:17.845Z,83.5
2022-12-01T12:21:16.534Z,83.2
2022-12-01T12:22:16.617Z,81.9
2022-12-01T12:23:17.113Z,82.2
2022-12-01T12:24:16.602Z,82.1
2022-12-01T12:25:17.073Z,82.3
2022-12-01T12:26:16.542Z,82.0
2022-12-01T12:27:17.055Z,81.5
2022-12-01T12:28:16.515Z,81.4
2022-12-01T12:29:16.997Z,81.5
2022-12-01T12:30:16.550Z,81.5
2022-12-01T12:31:17.120Z,81.4
2022-12-01T12:32:16.639Z,81.5
2022-12-01T12:33:17.107Z,82.9
2022-12-01T12:34:16.614Z,82.2
2022-12-01T12:35:17.141Z,81.9
2022-12-01T12:36:16.629Z,81.8
2022-12-01T12:37:17.664Z,81.3
2022-12-01T12:38:17.139Z,81.8
2022-12-01T12:39:17.306Z,81.7
2022-12-01T12:40:16.857Z,82.2
2022-12-01T12:41:17.402Z,82.5
2022-12-01T12:42:16.972Z,81.9
2022-12-01T12:43:16.450Z,82.1
2022-12-01T12:44:16.943Z,81.6
2022-12-01T12:45:17.517Z,81.3
2022-12-01T12:46:17.147Z,81.2
2022-12-01T12:47:16.783Z,81.2
2022-12-01T12:48:17.291Z,81.5
2022-12-01T12:49:21.234Z,81.2
2022-12-01T12:50:16.952Z,81.5
2022-12-01T12:51:16.462Z,81.5
2022-12-01T12:52:16.853Z,82.5
2022-12-01T12:53:17.357Z,81.1
2022-12-01T12:54:16.902Z,81.8
2022-12-01T12:55:17.437Z,81.9
2022-12-01T12:56:16.957Z,81.8
2022-12-01T12:57:17.465Z,81.8
2022-12-01T12:58:16.948Z,81.8
2022-12-01T12:59:17.425Z,81.5
2022-12-01T13:00:17.040Z,81.5
2022-12-01T13:01:16.686Z,81.7
2022-12-01T13:02:17.276Z,81.5
2022-12-01T13:03:16.755Z,82.1
2022-12-01T13:04:17.216Z,81.9
2022-12-01T13:05:16.708Z,82.0
2022-12-01T13:06:17.203Z,82.5
2022-12-01T13:07:16.708Z,82.3
2022-12-01T13:08:17.192Z,82.1
2022-12-01T13:09:16.671Z,82.2
2022-12-01T13:10:17.135Z,82.5
2022-12-01T13:11:16.603Z,82.0
2022-12-01T13:12:17.340Z,81.9
2022-12-01T13:13:16.852Z,82.4
2022-12-01T13:14:17.334Z,83.1
2022-12-01T13:15:16.819Z,82.8
2022-12-01T13:16:17.437Z,82.3
2022-12-01T13:17:16.978Z,82.2
2022-12-01T13:18:16.449Z,82.5